createdAt,value
2023-02-06T00:02:16.948Z,2.26
2023-02-06T00:07:19.678Z,2.12
2023-02-06T00:12:22.610Z,2.09
2023-02-06T00:17:26.645Z,1.97
2023-02-06T00:22:29.330Z,1.86
2023-02-06T00:27:32.229Z,1.82
2023-02-06T00:32:36.976Z,2.00
2023-02-06T00:37:39.707Z,1.97
2023-02-06T00:42:42.416Z,1.95
2023-02-06T00:47:46.446Z,2.12
2023-02-06T00:52:49.125Z,2.10
2023-02-06T00:57:51.853Z,2.15
2023-02-06T01:02:55.905Z,2.20
2023-02-06T01:07:58.641Z,2.15
2023-02-06T01:13:01.695Z,2.20
2023-02-06T01:18:05.973Z,2.25
2023-02-06T01:23:08.701Z,2.11
2023-02-06T01:28:11.459Z,1.99
2023-02-06T01:33:15.502Z,2.11
2023-02-06T01:38:19.230Z,2.17
2023-02-06T01:43:28.570Z,2.17
2023-02-06T01:48:36.149Z,2.23
2023-02-06T01:53:39.313Z,2.04
2023-02-06T01:58:43.831Z,1.99
2023-02-06T02:03:50.393Z,2.10
2023-02-06T02:08:58.091Z,2.31
2023-02-06T02:14:02.072Z,2.34
2023-02-06T02:19:42.721Z,2.17
2023-02-06T02:25:00.601Z,2.12
2023-02-06T02:30:48.736Z,2.25
2023-02-06T02:35:55.326Z,2.06
2023-02-06T02:41:03.434Z,2.02
2023-02-06T02:46:11.721Z,1.97
2023-02-06T02:51:16.080Z,1.99
2023-02-06T02:56:21.860Z,2.08
2023-02-06T03:01:32.032Z,2.03
2023-02-06T03:07:04.770Z,1.97
2023-02-06T03:12:13.029Z,2.24
2023-02-06T03:17:20.254Z,2.21
2023-02-06T03:22:25.576Z,2.23
2023-02-06T03:27:29.070Z,2.17
2023-02-06T03:32:33.742Z,2.09
2023-02-06T03:37:38.180Z,2.17
2023-02-06T03:42:44.326Z,1.87
2023-02-06T03:47:48.114Z,1.99
2023-02-06T03:52:52.715Z,2.01
2023-02-06T03:57:57.734Z,2.13
2023-02-06T04:03:01.281Z,2.12
2023-02-06T04:08:05.638Z,2.04
2023-02-06T04:13:08.431Z,1.94
2023-02-06T04:18:11.179Z,1.90
2023-02-06T04:23:15.291Z,2.06
2023-02-06T04:28:18.081Z,2.00
2023-02-06T04:33:20.866Z,1.78
2023-02-06T04:38:24.970Z,1.46
2023-02-06T04:43:27.715Z,1.43
2023-02-06T04:48:30.519Z,1.45
2023-02-06T04:53:34.632Z,1.61
2023-02-06T04:58:37.876Z,1.39
2023-02-06T05:03:40.651Z,1.57
2023-02-06T05:08:44.982Z,1.44
2023-02-06T05:13:47.760Z,1.34
2023-02-06T05:18:54.148Z,1.09
2023-02-06T05:23:58.277Z,1.00
2023-02-06T05:29:01.044Z,1.09
2023-02-06T05:34:03.874Z,1.10
2023-02-06T05:39:08.018Z,1.01
2023-02-06T05:44:11.371Z,0.84
2023-02-06T05:49:14.080Z,0.58
2023-02-06T05:54:18.423Z,0.53
2023-02-06T05:59:21.376Z,0.40
2023-02-06T06:04:24.269Z,0.02
2023-02-06T06:09:28.477Z,0.16
2023-02-06T06:14:31.288Z,0.35
2023-02-06T06:19:34.213Z,0.32
2023-02-06T06:24:38.775Z,0.20
2023-02-06T06:29:41.914Z,0.33
2023-02-06T06:34:44.657Z,0.20
2023-02-06T06:39:48.758Z,0.25
2023-02-06T06:44:51.512Z,-0.17
2023-02-06T06:49:54.254Z,-0.25
2023-02-06T06:54:58.419Z,-0.18
2023-02-06T07:00:01.191Z,-0.30
2023-02-06T07:05:04.125Z,-0.24
2023-02-06T07:10:09.562Z,-0.07
2023-02-06T07:15:12.417Z,-0.21
2023-02-06T07:20:15.717Z,-0.07
2023-02-06T07:25:20.242Z,-0.38
2023-02-06T07:30:23.051Z,-0.06
2023-02-06T07:35:25.881Z,0.18
2023-02-06T07:40:44.020Z,0.17
2023-02-06T07:45:47.250Z,0.07
2023-02-06T07:50:50.118Z,0.20
2023-02-06T07:55:54.630Z,0.32
2023-02-06T08:01:00.591Z,0.17
2023-02-06T08:06:08.924Z,0.49
2023-02-06T08:11:15.011Z,0.20
2023-02-06T08:16:19.540Z,2.39
2023-02-06T08:21:23.630Z,0.81
2023-02-06T08:26:28.629Z,0.08
2023-02-06T08:31:33.892Z,-0.17
2023-02-06T08:36:36.987Z,-0.17
2023-02-06T08:41:42.802Z,-0.21
2023-02-06T08:46:45.826Z,0.13
2023-02-06T08:51:50.139Z,0.72
2023-02-06T08:56:56.691Z,0.53
2023-02-06T09:01:59.548Z,0.60
2023-02-06T09:07:02.288Z,0.52
2023-02-06T09:12:07.021Z,0.51
2023-02-06T09:17:09.915Z,0.61
2023-02-06T09:22:12.752Z,0.37
2023-02-06T09:27:16.907Z,0.61
2023-02-06T09:32:19.651Z,0.82
2023-02-06T09:37:23.384Z,0.67
2023-02-06T09:42:31.555Z,1.05
2023-02-06T09:47:36.668Z,1.30
2023-02-06T09:52:53.487Z,1.03
2023-02-06T09:58:02.281Z,0.79
2023-02-06T10:03:18.703Z,1.28
2023-02-06T10:08:24.397Z,1.32
2023-02-06T10:13:32.116Z,1.50
2023-02-06T10:18:37.482Z,1.37
2023-02-06T10:23:43.080Z,1.57
2023-02-06T10:28:49.716Z,1.87
2023-02-06T10:33:59.672Z,1.44
2023-02-06T10:39:33.659Z,1.64
2023-02-06T10:44:51.145Z,1.83
2023-02-06T10:50:00.445Z,1.73
2023-02-06T10:55:13.264Z,1.96
2023-02-06T11:00:21.248Z,2.12
2023-02-06T11:05:25.970Z,1.68
2023-02-06T11:10:28.746Z,2.18
2023-02-06T11:15:37.565Z,2.23
2023-02-06T11:20:44.430Z,2.45
2023-02-06T11:25:51.293Z,2.49
2023-02-06T11:31:00.635Z,2.40
2023-02-06T11:36:05.165Z,2.53
2023-02-06T11:41:18.707Z,2.56
2023-02-06T11:46:26.494Z,2.40
2023-02-06T11:51:47.396Z,2.51
2023-02-06T11:57:03.086Z,2.70
2023-02-06T12:02:26.411Z,2.66
2023-02-06T12:07:31.351Z,2.44
2023-02-06T12:12:35.791Z,2.58
2023-02-06T12:17:42.761Z,2.57
2023-02-06T12:22:48.792Z,2.46
2023-02-06T12:27:51.412Z,2.65
2023-02-06T12:33:00.271Z,2.88
2023-02-06T12:38:07.997Z,2.62
2023-02-06T12:43:12.851Z,2.91
2023-02-06T12:48:20.729Z,2.93
2023-02-06T12:53:27.300Z,3.12
2023-02-06T12:58:35.322Z,3.17
2023-02-06T13:03:43.424Z,3.20
2023-02-06T13:08:49.860Z,3.24
2023-02-06T13:14:01.456Z,3.32
2023-02-06T13:19:05.912Z,3.24
2023-02-06T13:24:20.342Z,3.42
2023-02-06T13:29:25.174Z,3.16
2023-02-06T13:34:29.972Z,3.25
2023-02-06T13:39:34.634Z,3.12
2023-02-06T13:44:38.753Z,3.54
2023-02-06T13:50:13.576Z,3.42
2023-02-06T13:55:25.451Z,3.63
2023-02-06T14:00:30.306Z,3.72
2023-02-06T14:05:42.513Z,3.72
2023-02-06T14:11:28.539Z,3.68
2023-02-06T14:16:38.371Z,3.50
2023-02-06T14:21:46.635Z,3.40
2023-02-06T14:26:55.301Z,3.59
2023-02-06T14:32:11.199Z,3.54
2023-02-06T14:37:39.500Z,3.84
2023-02-06T14:42:44.294Z,3.89
2023-02-06T14:47:47.579Z,3.94
2023-02-06T14:52:54.083Z,3.98
2023-02-06T14:57:57.226Z,3.90
2023-02-06T15:03:09.196Z,3.95
2023-02-06T15:08:19.692Z,3.95
2023-02-06T15:13:23.320Z,4.03
2023-02-06T15:18:27.548Z,4.02
2023-02-06T15:23:41.558Z,3.82
2023-02-06T15:28:45.079Z,4.00
2023-02-06T15:33:49.578Z,3.91
2023-02-06T15:38:53.787Z,3.71
2023-02-06T15:44:01.109Z,3.84
2023-02-06T15:49:03.827Z,3.98
2023-02-06T15:54:10.738Z,3.91
2023-02-06T15:59:17.379Z,3.96
2023-02-06T16:04:28.236Z,3.97
2023-02-06T16:09:33.377Z,3.94
2023-02-06T16:14:37.439Z,4.02
2023-02-06T16:19:48.008Z,3.97
2023-02-06T16:24:53.755Z,3.86
2023-02-06T16:29:58.157Z,3.76
2023-02-06T16:35:01.498Z,3.62
2023-02-06T16:40:06.651Z,3.65
2023-02-06T16:45:17.807Z,3.64
2023-02-06T16:50:21.526Z,3.60
2023-02-06T16:55:27.137Z,3.53
2023-02-06T17:00:32.433Z,3.58
2023-02-06T17:05:37.234Z,3.41
2023-02-06T17:10:41.310Z,3.38
2023-02-06T17:15:46.982Z,3.18
2023-02-06T17:20:52.629Z,3.10
2023-02-06T17:25:56.675Z,2.99
2023-02-06T17:30:59.488Z,2.93
2023-02-06T17:36:02.647Z,2.82
2023-02-06T17:41:06.796Z,2.71
2023-02-06T17:46:11.639Z,2.67
2023-02-06T17:51:14.394Z,2.58
2023-02-06T17:56:19.278Z,2.55
2023-02-06T18:01:23.945Z,2.43
2023-02-06T18:06:26.816Z,2.32
2023-02-06T18:11:31.385Z,2.30
2023-02-06T18:16:34.283Z,2.20
2023-02-06T18:21:37.150Z,2.13
2023-02-06T18:26:41.224Z,1.88
2023-02-06T18:31:43.963Z,2.03
2023-02-06T18:36:46.697Z,2.01
2023-02-06T18:42:08.328Z,2.08
2023-02-06T18:47:12.070Z,1.99
2023-02-06T18:52:15.416Z,1.89
2023-02-06T18:57:19.560Z,1.98
2023-02-06T19:02:22.379Z,1.92
2023-02-06T19:07:25.241Z,1.81
2023-02-06T19:12:30.170Z,1.74
2023-02-06T19:17:33.698Z,1.59
2023-02-06T19:22:36.984Z,1.65
2023-02-06T19:27:41.103Z,1.63
2023-02-06T19:32:43.918Z,1.46
2023-02-06T19:37:46.810Z,1.38
2023-02-06T19:42:50.880Z,1.17
2023-02-06T19:47:53.667Z,1.20
2023-02-06T19:52:56.395Z,1.20
2023-02-06T19:58:00.504Z,1.13
2023-02-06T20:03:03.233Z,1.18
2023-02-06T20:08:06.322Z,1.06
2023-02-06T20:13:10.566Z,0.90
2023-02-06T20:18:13.345Z,0.98
2023-02-06T20:23:16.059Z,1.01
2023-02-06T20:28:20.411Z,1.02
2023-02-06T20:33:23.175Z,0.88
2023-02-06T20:38:26.242Z,0.85
2023-02-06T20:43:30.681Z,0.84
2023-02-06T20:48:34.039Z,0.71
2023-02-06T20:53:36.759Z,0.69
2023-02-06T20:58:40.918Z,0.71
2023-02-06T21:03:44.036Z,0.73
2023-02-06T21:08:47.575Z,0.54
2023-02-06T21:13:51.630Z,0.58
2023-02-06T21:18:54.579Z,0.43
2023-02-06T21:23:57.364Z,0.51
2023-02-06T21:29:02.629Z,0.58
2023-02-06T21:34:08.202Z,0.57
2023-02-06T21:39:11.557Z,0.41
2023-02-06T21:44:15.783Z,0.44
2023-02-06T21:49:18.631Z,0.32
2023-02-06T21:54:22.318Z,0.36
2023-02-06T21:59:26.406Z,0.40
2023-02-06T22:04:29.235Z,0.20
2023-02-06T22:09:31.979Z,0.32
2023-02-06T22:14:36.318Z,0.14
2023-02-06T22:19:39.027Z,0.21
2023-02-06T22:24:41.751Z,-0.06
2023-02-06T22:29:45.983Z,-0.11
2023-02-06T22:34:50.810Z,-0.71
2023-02-06T22:39:55.603Z,-0.20
2023-02-06T22:44:59.668Z,-0.26
2023-02-06T22:50:02.402Z,-0.22
2023-02-06T22:55:05.741Z,-0.48
2023-02-06T23:00:12.595Z,-0.35
2023-02-06T23:05:15.535Z,-0.21
2023-02-06T23:10:18.357Z,-0.41
2023-02-06T23:15:22.484Z,-0.32
2023-02-06T23:20:25.241Z,-0.33
2023-02-06T23:25:28.002Z,-0.46
2023-02-06T23:30:32.095Z,-0.35
2023-02-06T23:35:36.840Z,-0.27
2023-02-06T23:40:40.011Z,-0.39
2023-02-06T23:45:44.087Z,-0.34
2023-02-06T23:50:46.804Z,-0.52
2023-02-06T23:55:49.544Z,-0.44
